York, SC (29745)

11:21 AM EDT on Οκτώβριος 24, 2014 (GMT -0400)
Hilton Pond Center for Piedmont Natural History | Change Station
CLOSE
Current Station
Personal Weather Stations
Location: York, SC
Elevation: 705 ft
Nearby Weather Stations

Elev 705 ft 34.97 °N, 81.22 °W | Updated 20 seconds ago

Λίγο Νεφελώδης
Λίγο Νεφελώδης
57.6 ° F
Feels Like 57.6 ° F
N
0.0
Ανεμος Μεταβλητός Ανεμος from ΝΑ
Gusts 0.0 mph

Σήμερα
High -- | Low -- ° F
--% Chance of Precip.
Yesterday
High -- | Low -- ° F
Precip. -- in
7:38 AM 6:38 PM
Νέα Σελήνη, 1% visible
Ατμοσφαιρική Πίεση 30.10 in
Ορατότητα 10.0 Μίλια
Σύννεφα Αίθριος
Σημείο Δρόσου 46 ° F
Υγρασία 65%
Rainfall 0.00 in
Snow Depth Not available.
Υπεριώδης ακτινοβολία (UV) 4 out of 12
Pollen 2.70 out of 12
Όζον Καλή
Flu Activity Sporadic
METAR KUZA 241454Z AUTO VRB05KT 10SM CLR 14/07 A3010 RMK AO2 SLP191 T01440067 51011

More Conditions Fewer Conditions

Ατμοσφαιρική Πίεση 30.10 in
Ορατότητα 10.0 Μίλια
Σύννεφα Αίθριος
Σημείο Δρόσου 46 ° F
Υγρασία 65%
Rainfall 0.00 in
Snow Depth Not available.
Υπεριώδης ακτινοβολία (UV) 4 out of 12
Pollen 2.70 out of 12
Όζον Καλή
Flu Activity Sporadic
METAR KUZA 241454Z AUTO VRB05KT 10SM CLR 14/07 A3010 RMK AO2 SLP191 T01440067 51011

More Conditions Fewer Conditions

10-Day Weather Forecast

Almanac

Αστρονομία

Oct. 24, 2014 Rise Set
Actual Time 7:38 AM EDT 6:38 PM EDT
Civil Twilight 7:12 AM EDT 7:04 PM EDT
Nautical Twilight 6:43 AM EDT 7:34 PM EDT
Astronomical Twilight 6:13 AM EDT 8:03 PM EDT
Moon 8:14 AM EDT 7:19 PM EDT
Length Of Visible Light 11h 52m
Διάρκεια ημέρας
11h 00m
Tomorrow will be 2m 0s shorter.
Νέα Σελήνη, 1% of the Moon is Illuminated
Σήμερα
Νέα Σελήνη
Oct 30
Πρώτο τέταρτο
Nov 6
Πανσέληνος
Nov 14
Τελευταίο τέταρτο
Nov 22
New

Today's Extremes

State Highs State Lows

Community

WunderPhotos

Upload Photos

1,764,588 photos uploaded!

WunderBlogs® & News

By Dr. Jeff Masters
Director of Meteorology, Weather Underground
By Kari Strenfel
Meteorologist, Weather Underground
By Christopher C. Burt
Weather Historian, Weather Underground
October 24, 2014
October 24, 2014
October 24, 2014

Nearby

Air Quality

  Air Quality AQ Index Pollutant
Yesterday Καλή
OZONE
Current Καλή
OZONE

Snow Depth

Station Depth Elevation
No new snow has been reported.

Earthquake Activity

City Distance Mag. Time & Date
No recent earthquake activity has been reported nearby.
Minimum magnitude displayed is 2.5.

Coastal Water Temperatures

Τοποθεσία Θερμοκρασία
No Stations Reporting

Nearby Weather Stations